• Join FlightAware (Why Join?)
  • Login
  • US Flag 
03:38AM EDT


 

Airport Tracker/Info


-or-


 

Live Flight TrackerFlight Track Log ✈ N102WY ✈ 17-May-2013 ✈ KCOD - KJAC

Flight Track Log - Related Links

Times and Time Zones

All times are in EDT time to prevent confusion due to time zone crossing. See the N102WY flight status page for this flight to view local times or setup timezone preferences in your user account.

Time Position Orientation Groundspeed Altitude Reporting Facility
EDT Latitude Longitude Course Direction KTS MPH feet Rate Location/Type
12:25PM 44.5422 -109.0939 231° Southwest 227 261 12,300  Level Salt Lake Center
12:26PM 44.5050 -109.1572 231° Southwest 221 254 16,400 3,540 Climbing Salt Lake Center
12:27PM 44.4597 -109.2350 231° Southwest 229 264 19,700 1,740 Climbing Salt Lake Center
12:28PM 44.4172 -109.3142 233° Southwest 258 297 20,000 120 Climbing Salt Lake Center
12:29PM 44.3558 -109.4189 231° Southwest 303 349 20,000  Level Salt Lake Center
12:30PM 44.3039 -109.5097 231° Southwest 306 352 20,000 -240 Level Salt Lake Center
12:31PM 44.2416 -109.5273 231° Southwest  Level FlightAware Approximate
12:31PM 44.2539 -109.5989 232° Southwest 305 351 19,600  Level Salt Lake Center
12:32PM 44.1931 -109.7058 232° Southwest 313 360 18,500 -1,020 Descending Salt Lake Center
12:34PM 44.1408 -109.7972 231° Southwest 315 362 17,600 -1,020 Descending Salt Lake Center
12:35PM 44.0853 -109.8936 231° Southwest 291 335 16,500 -900 Descending Salt Lake Center
12:36PM 44.0392 -109.9728 231° Southwest 279 321 15,800 -660 Descending Salt Lake Center
12:37PM 43.9867 -110.0647 232° Southwest 273 314 15,200 -420 Descending Salt Lake Center
12:38PM 43.9417 -110.1411 231° Southwest 269 310 15,000 -120 Descending Salt Lake Center
12:39PM 43.8997 -110.2139 231° Southwest 257 296 15,000  Level Salt Lake Center
12:40PM 43.8522 -110.2933 230° Southwest 244 281 15,000 -300 Level Salt Lake Center
12:41PM 43.8233 -110.3681 242° Southwest 240 276 14,500 -1,500 Descending Salt Lake Center
12:42PM 43.8181 -110.4797 266° West 257 296 12,000 -2,040 Descending Salt Lake Center
12:43PM 43.8000 -110.5761 255° West 259 298 10,300 -1,320 Descending Salt Lake Center
12:44PM 43.7611 -110.6450 232° Southwest 244 281 9,300 -840 Descending Salt Lake Center
12:45PM 43.7128 -110.6861 212° Southwest 218 251 8,700 -900 Descending Salt Lake Center
12:46PM 43.6661 -110.7086 199° South 191 220 7,500 -1,020 Descending Salt Lake Center
12:47PM 43.6292 -110.7267 199° South 162 186 6,700 -780 Descending Salt Lake Center